sensor_id;sensor_type;location;lat;lon;timestamp;temperature;humidity
30572;DHT22;17348;50.948;10.696;2022-09-09T00:02:24;15.40;99.90
30572;DHT22;17348;50.948;10.696;2022-09-09T00:05:33;15.40;99.90
30572;DHT22;17348;50.948;10.696;2022-09-09T00:08:44;15.40;99.90
30572;DHT22;17348;50.948;10.696;2022-09-09T00:11:51;15.40;99.90
30572;DHT22;17348;50.948;10.696;2022-09-09T00:14:56;15.40;99.90
30572;DHT22;17348;50.948;10.696;2022-09-09T00:18:07;15.40;99.90
30572;DHT22;17348;50.948;10.696;2022-09-09T00:21:13;15.40;99.90
30572;DHT22;17348;50.948;10.696;2022-09-09T00:24:25;15.40;99.90
30572;DHT22;17348;50.948;10.696;2022-09-09T00:27:32;15.40;99.90
30572;DHT22;17348;50.948;10.696;2022-09-09T00:30:36;15.50;99.90
30572;DHT22;17348;50.948;10.696;2022-09-09T00:33:40;15.40;99.90
30572;DHT22;17348;50.948;10.696;2022-09-09T00:36:43;15.50;99.90
30572;DHT22;17348;50.948;10.696;2022-09-09T00:39:48;15.40;99.90
30572;DHT22;17348;50.948;10.696;2022-09-09T00:43:07;15.40;99.90
30572;DHT22;17348;50.948;10.696;2022-09-09T00:46:41;15.40;99.90
30572;DHT22;17348;50.948;10.696;2022-09-09T00:49:58;15.40;99.90
30572;DHT22;17348;50.948;10.696;2022-09-09T00:53:18;15.30;99.90
30572;DHT22;17348;50.948;10.696;2022-09-09T00:56:25;15.30;99.90
30572;DHT22;17348;50.948;10.696;2022-09-09T00:59:36;15.30;99.90
30572;DHT22;17348;50.948;10.696;2022-09-09T01:02:53;15.30;99.90
30572;DHT22;17348;50.948;10.696;2022-09-09T01:06:02;15.30;99.90
30572;DHT22;17348;50.948;10.696;2022-09-09T01:09:15;15.30;99.90
30572;DHT22;17348;50.948;10.696;2022-09-09T01:12:25;15.30;99.90
30572;DHT22;17348;50.948;10.696;2022-09-09T01:15:31;15.30;99.90
30572;DHT22;17348;50.948;10.696;2022-09-09T01:18:39;15.40;99.90
30572;DHT22;17348;50.948;10.696;2022-09-09T01:21:49;15.40;99.90
30572;DHT22;17348;50.948;10.696;2022-09-09T01:25:13;15.40;99.90
30572;DHT22;17348;50.948;10.696;2022-09-09T01:28:26;15.50;99.90
30572;DHT22;17348;50.948;10.696;2022-09-09T01:31:32;15.50;99.90
30572;DHT22;17348;50.948;10.696;2022-09-09T01:34:39;15.50;99.90
30572;DHT22;17348;50.948;10.696;2022-09-09T01:37:42;15.50;99.90
30572;DHT22;17348;50.948;10.696;2022-09-09T01:40:44;15.50;99.90
30572;DHT22;17348;50.948;10.696;2022-09-09T01:43:48;15.50;99.90
30572;DHT22;17348;50.948;10.696;2022-09-09T01:46:51;15.50;99.90
30572;DHT22;17348;50.948;10.696;2022-09-09T01:49:53;15.50;99.90
30572;DHT22;17348;50.948;10.696;2022-09-09T01:52:58;15.50;99.90
30572;DHT22;17348;50.948;10.696;2022-09-09T01:56:07;15.50;99.90
30572;DHT22;17348;50.948;10.696;2022-09-09T01:59:30;15.40;99.90
30572;DHT22;17348;50.948;10.696;2022-09-09T02:02:38;15.50;99.90
30572;DHT22;17348;50.948;10.696;2022-09-09T02:05:49;15.40;99.90
30572;DHT22;17348;50.948;10.696;2022-09-09T02:08:56;15.50;99.90
30572;DHT22;17348;50.948;10.696;2022-09-09T02:12:07;15.50;99.90
30572;DHT22;17348;50.948;10.696;2022-09-09T02:15:20;15.50;99.90
30572;DHT22;17348;50.948;10.696;2022-09-09T02:18:27;15.50;99.90
30572;DHT22;17348;50.948;10.696;2022-09-09T02:21:31;15.50;99.90
30572;DHT22;17348;50.948;10.696;2022-09-09T02:24:39;15.50;99.90
30572;DHT22;17348;50.948;10.696;2022-09-09T02:27:44;15.60;99.90
30572;DHT22;17348;50.948;10.696;2022-09-09T02:30:50;15.60;99.90
30572;DHT22;17348;50.948;10.696;2022-09-09T02:33:58;15.60;99.90
30572;DHT22;17348;50.948;10.696;2022-09-09T02:37:03;15.60;99.90
30572;DHT22;17348;50.948;10.696;2022-09-09T02:40:08;15.60;99.90
30572;DHT22;17348;50.948;10.696;2022-09-09T02:43:13;15.70;99.90
30572;DHT22;17348;50.948;10.696;2022-09-09T02:46:32;15.70;99.90
30572;DHT22;17348;50.948;10.696;2022-09-09T02:49:44;15.70;99.90
30572;DHT22;17348;50.948;10.696;2022-09-09T02:53:04;15.80;99.90
30572;DHT22;17348;50.948;10.696;2022-09-09T02:56:10;15.80;99.90
30572;DHT22;17348;50.948;10.696;2022-09-09T02:59:15;15.90;99.90
30572;DHT22;17348;50.948;10.696;2022-09-09T03:02:18;15.90;99.90
30572;DHT22;17348;50.948;10.696;2022-09-09T03:05:21;16.00;99.90
30572;DHT22;17348;50.948;10.696;2022-09-09T03:08:23;16.00;99.90
30572;DHT22;17348;50.948;10.696;2022-09-09T03:11:25;16.00;99.90
30572;DHT22;17348;50.948;10.696;2022-09-09T03:14:28;16.00;99.90
30572;DHT22;17348;50.948;10.696;2022-09-09T03:17:32;16.10;99.90
30572;DHT22;17348;50.948;10.696;2022-09-09T03:20:35;16.00;99.90
30572;DHT22;17348;50.948;10.696;2022-09-09T03:23:37;16.10;99.90
30572;DHT22;17348;50.948;10.696;2022-09-09T03:26:39;16.10;99.90
30572;DHT22;17348;50.948;10.696;2022-09-09T03:29:42;16.10;99.90
30572;DHT22;17348;50.948;10.696;2022-09-09T03:32:46;16.10;99.90
30572;DHT22;17348;50.948;10.696;2022-09-09T03:35:49;16.10;99.90
30572;DHT22;17348;50.948;10.696;2022-09-09T03:38:51;16.10;99.90
30572;DHT22;17348;50.948;10.696;2022-09-09T03:41:55;16.10;99.90
30572;DHT22;17348;50.948;10.696;2022-09-09T03:44:57;16.10;99.90
30572;DHT22;17348;50.948;10.696;2022-09-09T03:48:02;16.10;99.90
30572;DHT22;17348;50.948;10.696;2022-09-09T03:51:05;16.10;99.90
30572;DHT22;17348;50.948;10.696;2022-09-09T03:54:08;16.10;99.90
30572;DHT22;17348;50.948;10.696;2022-09-09T03:57:11;16.00;99.90
30572;DHT22;17348;50.948;10.696;2022-09-09T04:00:14;16.00;99.90
30572;DHT22;17348;50.948;10.696;2022-09-09T04:03:18;16.00;99.90
30572;DHT22;17348;50.948;10.696;2022-09-09T04:06:21;16.00;99.90
30572;DHT22;17348;50.948;10.696;2022-09-09T04:09:24;15.90;99.90
30572;DHT22;17348;50.948;10.696;2022-09-09T04:12:27;15.90;99.90
30572;DHT22;17348;50.948;10.696;2022-09-09T04:15:29;15.90;99.90
30572;DHT22;17348;50.948;10.696;2022-09-09T04:18:33;15.80;99.90
30572;DHT22;17348;50.948;10.696;2022-09-09T04:21:36;15.80;99.90
30572;DHT22;17348;50.948;10.696;2022-09-09T04:24:38;15.80;99.90
30572;DHT22;17348;50.948;10.696;2022-09-09T04:27:40;15.70;99.90
30572;DHT22;17348;50.948;10.696;2022-09-09T04:30:44;15.70;99.90
30572;DHT22;17348;50.948;10.696;2022-09-09T04:33:48;15.60;99.90
30572;DHT22;17348;50.948;10.696;2022-09-09T04:36:50;15.50;99.90
30572;DHT22;17348;50.948;10.696;2022-09-09T04:39:53;15.50;99.90
30572;DHT22;17348;50.948;10.696;2022-09-09T04:42:58;15.50;99.90
30572;DHT22;17348;50.948;10.696;2022-09-09T04:46:00;15.40;99.90
30572;DHT22;17348;50.948;10.696;2022-09-09T04:49:03;15.40;99.90
30572;DHT22;17348;50.948;10.696;2022-09-09T04:52:06;15.40;99.90
30572;DHT22;17348;50.948;10.696;2022-09-09T04:55:08;15.40;99.90
30572;DHT22;17348;50.948;10.696;2022-09-09T04:58:11;15.40;99.90
30572;DHT22;17348;50.948;10.696;2022-09-09T05:01:15;15.40;99.90
30572;DHT22;17348;50.948;10.696;2022-09-09T05:04:19;15.30;99.90
30572;DHT22;17348;50.948;10.696;2022-09-09T05:07:22;15.30;99.90
30572;DHT22;17348;50.948;10.696;2022-09-09T05:10:24;15.40;99.90
30572;DHT22;17348;50.948;10.696;2022-09-09T05:13:27;15.40;99.90
30572;DHT22;17348;50.948;10.696;2022-09-09T05:16:30;15.40;99.90
30572;DHT22;17348;50.948;10.696;2022-09-09T05:19:33;15.50;99.90
30572;DHT22;17348;50.948;10.696;2022-09-09T05:22:36;15.60;99.90
30572;DHT22;17348;50.948;10.696;2022-09-09T05:25:38;15.60;99.90
30572;DHT22;17348;50.948;10.696;2022-09-09T05:28:41;15.70;99.90
30572;DHT22;17348;50.948;10.696;2022-09-09T05:31:43;15.70;99.90
30572;DHT22;17348;50.948;10.696;2022-09-09T05:34:47;15.70;99.90
30572;DHT22;17348;50.948;10.696;2022-09-09T05:37:49;15.70;99.90
30572;DHT22;17348;50.948;10.696;2022-09-09T05:40:51;15.80;99.90
30572;DHT22;17348;50.948;10.696;2022-09-09T05:43:54;15.80;99.90
30572;DHT22;17348;50.948;10.696;2022-09-09T05:46:56;15.90;99.90
30572;DHT22;17348;50.948;10.696;2022-09-09T05:50:00;15.90;99.90
30572;DHT22;17348;50.948;10.696;2022-09-09T05:53:02;16.00;99.90
30572;DHT22;17348;50.948;10.696;2022-09-09T05:56:07;16.00;99.90
30572;DHT22;17348;50.948;10.696;2022-09-09T05:59:11;16.00;99.90
30572;DHT22;17348;50.948;10.696;2022-09-09T06:02:15;16.10;99.90
30572;DHT22;17348;50.948;10.696;2022-09-09T06:05:19;16.20;99.90
30572;DHT22;17348;50.948;10.696;2022-09-09T06:08:23;16.20;99.90
30572;DHT22;17348;50.948;10.696;2022-09-09T06:11:27;16.20;99.90
30572;DHT22;17348;50.948;10.696;2022-09-09T06:14:31;16.40;99.90
30572;DHT22;17348;50.948;10.696;2022-09-09T06:17:34;16.50;99.90
30572;DHT22;17348;50.948;10.696;2022-09-09T06:20:37;16.60;99.90
30572;DHT22;17348;50.948;10.696;2022-09-09T06:23:39;16.60;99.90
30572;DHT22;17348;50.948;10.696;2022-09-09T06:26:42;16.60;99.90
30572;DHT22;17348;50.948;10.696;2022-09-09T06:29:46;16.70;99.90
30572;DHT22;17348;50.948;10.696;2022-09-09T06:32:48;16.70;99.90
30572;DHT22;17348;50.948;10.696;2022-09-09T06:35:53;16.70;99.90
30572;DHT22;17348;50.948;10.696;2022-09-09T06:38:56;16.80;99.90
30572;DHT22;17348;50.948;10.696;2022-09-09T06:41:58;16.70;99.90
30572;DHT22;17348;50.948;10.696;2022-09-09T06:45:00;16.70;99.90
30572;DHT22;17348;50.948;10.696;2022-09-09T06:48:03;16.70;99.90
30572;DHT22;17348;50.948;10.696;2022-09-09T06:51:09;16.70;99.90
30572;DHT22;17348;50.948;10.696;2022-09-09T06:54:12;16.80;99.90
30572;DHT22;17348;50.948;10.696;2022-09-09T06:57:14;16.90;99.90
30572;DHT22;17348;50.948;10.696;2022-09-09T07:00:16;17.00;99.90
30572;DHT22;17348;50.948;10.696;2022-09-09T07:03:19;17.10;99.90
30572;DHT22;17348;50.948;10.696;2022-09-09T07:06:24;17.30;99.90
30572;DHT22;17348;50.948;10.696;2022-09-09T07:09:26;17.40;99.90
30572;DHT22;17348;50.948;10.696;2022-09-09T07:12:30;17.50;99.90
30572;DHT22;17348;50.948;10.696;2022-09-09T07:15:32;17.70;99.90
30572;DHT22;17348;50.948;10.696;2022-09-09T07:18:35;17.90;99.90
30572;DHT22;17348;50.948;10.696;2022-09-09T07:21:39;18.00;99.90
30572;DHT22;17348;50.948;10.696;2022-09-09T07:24:42;18.20;99.90
30572;DHT22;17348;50.948;10.696;2022-09-09T07:27:45;18.20;99.90
30572;DHT22;17348;50.948;10.696;2022-09-09T07:30:53;18.30;99.90
30572;DHT22;17348;50.948;10.696;2022-09-09T07:33:56;18.40;99.90
30572;DHT22;17348;50.948;10.696;2022-09-09T07:36:59;18.60;99.90
30572;DHT22;17348;50.948;10.696;2022-09-09T07:40:02;18.80;99.90
30572;DHT22;17348;50.948;10.696;2022-09-09T07:43:06;18.90;99.90
30572;DHT22;17348;50.948;10.696;2022-09-09T07:46:09;19.00;99.90
30572;DHT22;17348;50.948;10.696;2022-09-09T07:49:11;19.10;99.90
30572;DHT22;17348;50.948;10.696;2022-09-09T07:52:15;19.20;99.90
30572;DHT22;17348;50.948;10.696;2022-09-09T07:55:18;19.30;99.90
30572;DHT22;17348;50.948;10.696;2022-09-09T07:58:20;19.50;99.90
30572;DHT22;17348;50.948;10.696;2022-09-09T08:01:25;19.50;99.90
30572;DHT22;17348;50.948;10.696;2022-09-09T08:04:27;19.60;99.90
30572;DHT22;17348;50.948;10.696;2022-09-09T08:07:31;19.90;99.90
30572;DHT22;17348;50.948;10.696;2022-09-09T08:10:34;20.20;99.90
30572;DHT22;17348;50.948;10.696;2022-09-09T08:13:36;20.70;99.90
30572;DHT22;17348;50.948;10.696;2022-09-09T08:16:40;20.40;99.90
30572;DHT22;17348;50.948;10.696;2022-09-09T08:19:43;20.00;99.90
30572;DHT22;17348;50.948;10.696;2022-09-09T08:22:46;19.80;99.90
30572;DHT22;17348;50.948;10.696;2022-09-09T08:25:50;19.90;99.90
30572;DHT22;17348;50.948;10.696;2022-09-09T08:28:54;19.80;99.90
30572;DHT22;17348;50.948;10.696;2022-09-09T08:31:58;19.70;99.90
30572;DHT22;17348;50.948;10.696;2022-09-09T08:35:01;19.70;99.90
30572;DHT22;17348;50.948;10.696;2022-09-09T08:38:04;19.60;99.90
30572;DHT22;17348;50.948;10.696;2022-09-09T08:41:29;19.50;99.90
30572;DHT22;17348;50.948;10.696;2022-09-09T08:44:56;19.40;99.90
30572;DHT22;17348;50.948;10.696;2022-09-09T08:48:13;19.40;99.90
30572;DHT22;17348;50.948;10.696;2022-09-09T08:51:17;19.20;99.90
30572;DHT22;17348;50.948;10.696;2022-09-09T08:54:21;19.20;99.90
30572;DHT22;17348;50.948;10.696;2022-09-09T08:57:26;19.30;99.90
30572;DHT22;17348;50.948;10.696;2022-09-09T09:00:38;19.30;99.90
30572;DHT22;17348;50.948;10.696;2022-09-09T09:03:48;19.20;99.90
30572;DHT22;17348;50.948;10.696;2022-09-09T09:07:00;19.30;99.90
30572;DHT22;17348;50.948;10.696;2022-09-09T09:10:12;19.40;99.90
30572;DHT22;17348;50.948;10.696;2022-09-09T09:13:19;19.40;99.90
30572;DHT22;17348;50.948;10.696;2022-09-09T09:16:29;19.20;99.90
30572;DHT22;17348;50.948;10.696;2022-09-09T09:19:34;19.20;99.90
30572;DHT22;17348;50.948;10.696;2022-09-09T09:22:44;19.30;99.90
30572;DHT22;17348;50.948;10.696;2022-09-09T09:25:52;19.50;99.90
30572;DHT22;17348;50.948;10.696;2022-09-09T09:28:59;19.60;99.90
30572;DHT22;17348;50.948;10.696;2022-09-09T09:32:04;19.80;99.90
30572;DHT22;17348;50.948;10.696;2022-09-09T09:35:11;19.80;99.90
30572;DHT22;17348;50.948;10.696;2022-09-09T09:38:17;20.00;99.90
30572;DHT22;17348;50.948;10.696;2022-09-09T09:41:31;20.10;99.90
30572;DHT22;17348;50.948;10.696;2022-09-09T09:44:34;20.20;99.90
30572;DHT22;17348;50.948;10.696;2022-09-09T09:47:38;20.30;99.90
30572;DHT22;17348;50.948;10.696;2022-09-09T09:50:48;20.20;99.90
30572;DHT22;17348;50.948;10.696;2022-09-09T09:53:51;20.20;99.90
30572;DHT22;17348;50.948;10.696;2022-09-09T09:56:56;20.20;99.90
30572;DHT22;17348;50.948;10.696;2022-09-09T10:00:13;20.20;99.90
30572;DHT22;17348;50.948;10.696;2022-09-09T10:03:22;20.40;99.90
30572;DHT22;17348;50.948;10.696;2022-09-09T10:06:32;20.50;99.90
30572;DHT22;17348;50.948;10.696;2022-09-09T10:09:35;20.50;99.90
30572;DHT22;17348;50.948;10.696;2022-09-09T10:12:45;20.50;99.90
30572;DHT22;17348;50.948;10.696;2022-09-09T10:15:57;20.60;99.90
30572;DHT22;17348;50.948;10.696;2022-09-09T10:19:00;20.70;99.90
30572;DHT22;17348;50.948;10.696;2022-09-09T10:22:21;20.90;99.90
30572;DHT22;17348;50.948;10.696;2022-09-09T10:25:33;21.10;99.90
30572;DHT22;17348;50.948;10.696;2022-09-09T10:28:58;21.20;99.90
30572;DHT22;17348;50.948;10.696;2022-09-09T10:32:13;21.30;99.90
30572;DHT22;17348;50.948;10.696;2022-09-09T10:35:25;21.50;99.90
30572;DHT22;17348;50.948;10.696;2022-09-09T10:38:31;21.70;99.90
30572;DHT22;17348;50.948;10.696;2022-09-09T10:41:44;21.80;99.90
30572;DHT22;17348;50.948;10.696;2022-09-09T10:45:03;21.90;99.90
30572;DHT22;17348;50.948;10.696;2022-09-09T10:48:27;22.00;99.90
30572;DHT22;17348;50.948;10.696;2022-09-09T10:51:38;22.10;99.90
30572;DHT22;17348;50.948;10.696;2022-09-09T10:54:50;22.30;99.90
30572;DHT22;17348;50.948;10.696;2022-09-09T10:57:58;22.40;99.90
30572;DHT22;17348;50.948;10.696;2022-09-09T11:01:11;22.30;99.90
30572;DHT22;17348;50.948;10.696;2022-09-09T11:04:21;22.10;99.90
30572;DHT22;17348;50.948;10.696;2022-09-09T11:07:29;21.90;99.90
30572;DHT22;17348;50.948;10.696;2022-09-09T11:10:39;21.80;99.90
30572;DHT22;17348;50.948;10.696;2022-09-09T11:13:48;21.70;99.90
30572;DHT22;17348;50.948;10.696;2022-09-09T11:16:57;21.60;99.90
30572;DHT22;17348;50.948;10.696;2022-09-09T11:20:01;21.40;99.90
30572;DHT22;17348;50.948;10.696;2022-09-09T11:23:05;21.30;99.90
30572;DHT22;17348;50.948;10.696;2022-09-09T11:26:16;21.20;99.90
30572;DHT22;17348;50.948;10.696;2022-09-09T11:29:40;21.10;99.90
30572;DHT22;17348;50.948;10.696;2022-09-09T11:36:47;20.90;99.90
30572;DHT22;17348;50.948;10.696;2022-09-09T11:40:08;20.80;99.90
30572;DHT22;17348;50.948;10.696;2022-09-09T11:43:13;20.70;99.90
30572;DHT22;17348;50.948;10.696;2022-09-09T11:46:18;20.70;99.90
30572;DHT22;17348;50.948;10.696;2022-09-09T11:49:28;20.90;99.90
30572;DHT22;17348;50.948;10.696;2022-09-09T11:52:37;21.30;99.90
30572;DHT22;17348;50.948;10.696;2022-09-09T11:55:40;21.60;99.90
30572;DHT22;17348;50.948;10.696;2022-09-09T11:58:44;21.90;99.90
30572;DHT22;17348;50.948;10.696;2022-09-09T12:01:56;21.90;99.90
30572;DHT22;17348;50.948;10.696;2022-09-09T12:05:02;22.00;99.90
30572;DHT22;17348;50.948;10.696;2022-09-09T12:08:10;22.20;99.90
30572;DHT22;17348;50.948;10.696;2022-09-09T12:11:24;22.20;99.90
30572;DHT22;17348;50.948;10.696;2022-09-09T12:14:35;22.30;99.90
30572;DHT22;17348;50.948;10.696;2022-09-09T12:17:42;22.50;99.90
30572;DHT22;17348;50.948;10.696;2022-09-09T12:20:54;22.60;99.90
30572;DHT22;17348;50.948;10.696;2022-09-09T12:24:01;22.60;99.90
30572;DHT22;17348;50.948;10.696;2022-09-09T12:27:12;22.80;99.90
30572;DHT22;17348;50.948;10.696;2022-09-09T12:30:18;22.90;99.90
30572;DHT22;17348;50.948;10.696;2022-09-09T12:33:22;23.00;99.90
30572;DHT22;17348;50.948;10.696;2022-09-09T12:36:29;23.00;99.90
30572;DHT22;17348;50.948;10.696;2022-09-09T12:39:35;22.90;99.90
30572;DHT22;17348;50.948;10.696;2022-09-09T12:42:40;22.80;99.90
30572;DHT22;17348;50.948;10.696;2022-09-09T12:45:42;22.60;99.90
30572;DHT22;17348;50.948;10.696;2022-09-09T12:48:46;22.60;99.90
30572;DHT22;17348;50.948;10.696;2022-09-09T12:51:50;22.70;99.90
30572;DHT22;17348;50.948;10.696;2022-09-09T12:54:53;22.70;99.90
30572;DHT22;17348;50.948;10.696;2022-09-09T12:57:56;22.70;99.90
30572;DHT22;17348;50.948;10.696;2022-09-09T13:01:01;22.90;99.90
30572;DHT22;17348;50.948;10.696;2022-09-09T13:04:19;22.90;99.90
30572;DHT22;17348;50.948;10.696;2022-09-09T13:07:24;23.00;99.90
30572;DHT22;17348;50.948;10.696;2022-09-09T13:10:29;22.90;99.90
30572;DHT22;17348;50.948;10.696;2022-09-09T13:13:36;23.00;99.90
30572;DHT22;17348;50.948;10.696;2022-09-09T13:16:39;23.10;99.90
30572;DHT22;17348;50.948;10.696;2022-09-09T13:19:44;23.30;99.90
30572;DHT22;17348;50.948;10.696;2022-09-09T13:22:50;23.50;99.90
30572;DHT22;17348;50.948;10.696;2022-09-09T13:25:54;23.60;99.90
30572;DHT22;17348;50.948;10.696;2022-09-09T13:29:08;23.50;99.90
30572;DHT22;17348;50.948;10.696;2022-09-09T13:32:17;23.50;99.90
30572;DHT22;17348;50.948;10.696;2022-09-09T13:35:23;23.20;99.90
30572;DHT22;17348;50.948;10.696;2022-09-09T13:38:28;23.10;99.90
30572;DHT22;17348;50.948;10.696;2022-09-09T13:41:33;23.10;99.90
30572;DHT22;17348;50.948;10.696;2022-09-09T13:44:39;23.00;99.90
30572;DHT22;17348;50.948;10.696;2022-09-09T13:47:43;23.10;99.90
30572;DHT22;17348;50.948;10.696;2022-09-09T13:50:57;23.20;99.90
30572;DHT22;17348;50.948;10.696;2022-09-09T13:54:01;23.20;99.90
30572;DHT22;17348;50.948;10.696;2022-09-09T13:57:04;23.40;99.90
30572;DHT22;17348;50.948;10.696;2022-09-09T14:00:10;23.20;99.90
30572;DHT22;17348;50.948;10.696;2022-09-09T14:03:13;23.10;99.90
30572;DHT22;17348;50.948;10.696;2022-09-09T14:06:15;23.00;99.90
30572;DHT22;17348;50.948;10.696;2022-09-09T14:09:21;23.10;99.90
30572;DHT22;17348;50.948;10.696;2022-09-09T14:12:23;23.30;99.90
30572;DHT22;17348;50.948;10.696;2022-09-09T14:15:26;23.30;99.90
30572;DHT22;17348;50.948;10.696;2022-09-09T14:18:28;23.20;99.90
30572;DHT22;17348;50.948;10.696;2022-09-09T14:21:30;22.90;99.90
30572;DHT22;17348;50.948;10.696;2022-09-09T14:24:34;22.60;99.90
30572;DHT22;17348;50.948;10.696;2022-09-09T14:27:37;22.30;99.90
30572;DHT22;17348;50.948;10.696;2022-09-09T14:30:41;22.20;99.90
30572;DHT22;17348;50.948;10.696;2022-09-09T14:33:45;22.20;99.90
30572;DHT22;17348;50.948;10.696;2022-09-09T14:36:47;22.10;99.90
30572;DHT22;17348;50.948;10.696;2022-09-09T14:39:51;22.00;99.90
30572;DHT22;17348;50.948;10.696;2022-09-09T14:42:54;22.10;99.90
30572;DHT22;17348;50.948;10.696;2022-09-09T14:45:57;22.20;99.90
30572;DHT22;17348;50.948;10.696;2022-09-09T14:48:59;22.30;99.90
30572;DHT22;17348;50.948;10.696;2022-09-09T14:52:02;22.30;99.90
30572;DHT22;17348;50.948;10.696;2022-09-09T14:55:07;22.30;99.90
30572;DHT22;17348;50.948;10.696;2022-09-09T14:58:10;22.30;99.90
30572;DHT22;17348;50.948;10.696;2022-09-09T15:01:14;22.30;99.90
30572;DHT22;17348;50.948;10.696;2022-09-09T15:04:17;22.10;99.90
30572;DHT22;17348;50.948;10.696;2022-09-09T15:07:20;22.00;99.90
30572;DHT22;17348;50.948;10.696;2022-09-09T15:10:24;21.90;99.90
30572;DHT22;17348;50.948;10.696;2022-09-09T15:13:27;21.80;99.90
30572;DHT22;17348;50.948;10.696;2022-09-09T15:16:29;21.70;99.90
30572;DHT22;17348;50.948;10.696;2022-09-09T15:19:33;21.60;99.90
30572;DHT22;17348;50.948;10.696;2022-09-09T15:22:35;21.40;99.90
30572;DHT22;17348;50.948;10.696;2022-09-09T15:25:50;21.30;99.90
30572;DHT22;17348;50.948;10.696;2022-09-09T15:28:53;21.30;99.90
30572;DHT22;17348;50.948;10.696;2022-09-09T15:31:56;21.20;99.90
30572;DHT22;17348;50.948;10.696;2022-09-09T15:34:58;21.20;99.90
30572;DHT22;17348;50.948;10.696;2022-09-09T15:38:02;21.20;99.90
30572;DHT22;17348;50.948;10.696;2022-09-09T15:41:07;21.20;99.90
30572;DHT22;17348;50.948;10.696;2022-09-09T15:44:10;21.30;99.90
30572;DHT22;17348;50.948;10.696;2022-09-09T15:47:13;21.10;99.90
30572;DHT22;17348;50.948;10.696;2022-09-09T15:50:16;21.00;99.90
30572;DHT22;17348;50.948;10.696;2022-09-09T15:53:19;21.00;99.90
30572;DHT22;17348;50.948;10.696;2022-09-09T15:56:24;20.90;99.90
30572;DHT22;17348;50.948;10.696;2022-09-09T15:59:28;20.90;99.90
30572;DHT22;17348;50.948;10.696;2022-09-09T16:02:31;20.80;99.90
30572;DHT22;17348;50.948;10.696;2022-09-09T16:05:33;20.60;99.90
30572;DHT22;17348;50.948;10.696;2022-09-09T16:08:37;20.60;99.90
30572;DHT22;17348;50.948;10.696;2022-09-09T16:11:41;20.50;99.90
30572;DHT22;17348;50.948;10.696;2022-09-09T16:14:43;20.40;99.90
30572;DHT22;17348;50.948;10.696;2022-09-09T16:17:46;20.50;99.90
30572;DHT22;17348;50.948;10.696;2022-09-09T16:20:53;20.60;99.90
30572;DHT22;17348;50.948;10.696;2022-09-09T16:23:58;20.70;99.90
30572;DHT22;17348;50.948;10.696;2022-09-09T16:27:02;20.70;99.90
30572;DHT22;17348;50.948;10.696;2022-09-09T16:30:06;20.70;99.90
30572;DHT22;17348;50.948;10.696;2022-09-09T16:33:08;20.60;99.90
30572;DHT22;17348;50.948;10.696;2022-09-09T16:36:12;20.60;99.90
30572;DHT22;17348;50.948;10.696;2022-09-09T16:39:18;20.70;99.90
30572;DHT22;17348;50.948;10.696;2022-09-09T16:42:21;20.70;99.90
30572;DHT22;17348;50.948;10.696;2022-09-09T16:45:24;20.70;99.90
30572;DHT22;17348;50.948;10.696;2022-09-09T16:48:26;20.70;99.90
30572;DHT22;17348;50.948;10.696;2022-09-09T16:51:31;20.80;99.90
30572;DHT22;17348;50.948;10.696;2022-09-09T16:54:33;20.70;99.90
30572;DHT22;17348;50.948;10.696;2022-09-09T16:57:37;20.50;99.90
30572;DHT22;17348;50.948;10.696;2022-09-09T17:00:39;20.50;99.90
30572;DHT22;17348;50.948;10.696;2022-09-09T17:03:42;20.50;99.90
30572;DHT22;17348;50.948;10.696;2022-09-09T17:06:46;20.50;99.90
30572;DHT22;17348;50.948;10.696;2022-09-09T17:09:50;20.50;99.90
30572;DHT22;17348;50.948;10.696;2022-09-09T17:12:53;20.40;99.90
30572;DHT22;17348;50.948;10.696;2022-09-09T17:15:56;20.30;99.90
30572;DHT22;17348;50.948;10.696;2022-09-09T17:18:58;20.20;99.90
30572;DHT22;17348;50.948;10.696;2022-09-09T17:22:02;20.10;99.90
30572;DHT22;17348;50.948;10.696;2022-09-09T17:25:05;19.90;99.90
30572;DHT22;17348;50.948;10.696;2022-09-09T17:28:08;19.80;99.90
30572;DHT22;17348;50.948;10.696;2022-09-09T17:31:13;19.70;99.90
30572;DHT22;17348;50.948;10.696;2022-09-09T17:34:16;19.60;99.90
30572;DHT22;17348;50.948;10.696;2022-09-09T17:37:18;19.50;99.90
30572;DHT22;17348;50.948;10.696;2022-09-09T17:40:21;19.40;99.90
30572;DHT22;17348;50.948;10.696;2022-09-09T17:43:24;19.40;99.90
30572;DHT22;17348;50.948;10.696;2022-09-09T17:46:28;19.30;99.90
30572;DHT22;17348;50.948;10.696;2022-09-09T17:49:31;19.20;99.90
30572;DHT22;17348;50.948;10.696;2022-09-09T17:52:33;19.10;99.90
30572;DHT22;17348;50.948;10.696;2022-09-09T17:55:35;19.00;99.90
30572;DHT22;17348;50.948;10.696;2022-09-09T17:58:39;18.90;99.90
30572;DHT22;17348;50.948;10.696;2022-09-09T18:01:43;18.90;99.90
30572;DHT22;17348;50.948;10.696;2022-09-09T18:04:46;18.80;99.90
30572;DHT22;17348;50.948;10.696;2022-09-09T18:07:48;18.70;99.90
30572;DHT22;17348;50.948;10.696;2022-09-09T18:10:51;18.60;99.90
30572;DHT22;17348;50.948;10.696;2022-09-09T18:13:59;18.60;99.90
30572;DHT22;17348;50.948;10.696;2022-09-09T18:17:02;18.50;99.90
30572;DHT22;17348;50.948;10.696;2022-09-09T18:20:05;18.50;99.90
30572;DHT22;17348;50.948;10.696;2022-09-09T18:23:08;18.40;99.90
30572;DHT22;17348;50.948;10.696;2022-09-09T18:26:11;18.30;99.90
30572;DHT22;17348;50.948;10.696;2022-09-09T18:29:17;18.20;99.90
30572;DHT22;17348;50.948;10.696;2022-09-09T18:32:19;18.10;99.90
30572;DHT22;17348;50.948;10.696;2022-09-09T18:35:22;18.00;99.90
30572;DHT22;17348;50.948;10.696;2022-09-09T18:38:24;18.00;99.90
30572;DHT22;17348;50.948;10.696;2022-09-09T18:41:28;17.90;99.90
30572;DHT22;17348;50.948;10.696;2022-09-09T18:44:33;17.80;99.90
30572;DHT22;17348;50.948;10.696;2022-09-09T18:47:36;17.70;99.90
30572;DHT22;17348;50.948;10.696;2022-09-09T18:50:38;17.70;99.90
30572;DHT22;17348;50.948;10.696;2022-09-09T18:53:41;17.70;99.90
30572;DHT22;17348;50.948;10.696;2022-09-09T18:56:45;17.60;99.90
30572;DHT22;17348;50.948;10.696;2022-09-09T18:59:49;17.50;99.90
30572;DHT22;17348;50.948;10.696;2022-09-09T19:02:54;17.50;99.90
30572;DHT22;17348;50.948;10.696;2022-09-09T19:06:01;17.40;99.90
30572;DHT22;17348;50.948;10.696;2022-09-09T19:09:04;17.40;99.90
30572;DHT22;17348;50.948;10.696;2022-09-09T19:12:06;17.30;99.90
30572;DHT22;17348;50.948;10.696;2022-09-09T19:15:10;17.30;99.90
30572;DHT22;17348;50.948;10.696;2022-09-09T19:18:12;17.30;99.90